sensor_id;sensor_type;location;lat;lon;timestamp;pressure;altitude;pressure_sealevel;temperature;humidity
550;BME280;20066;48.764;9.176;2023-03-11T00:00:14;97130.03;;;5.15;52.26
550;BME280;20066;48.764;9.176;2023-03-11T00:02:46;97131.78;;;4.39;53.74
550;BME280;20066;48.764;9.176;2023-03-11T00:05:16;97114.97;;;4.31;53.18
550;BME280;20066;48.764;9.176;2023-03-11T00:07:44;97131.09;;;5.03;52.26
550;BME280;20066;48.764;9.176;2023-03-11T00:10:14;97132.13;;;4.88;51.89
550;BME280;20066;48.764;9.176;2023-03-11T00:12:42;97139.63;;;4.68;52.01
550;BME280;20066;48.764;9.176;2023-03-11T00:15:10;97145.09;;;4.93;52.47
550;BME280;20066;48.764;9.176;2023-03-11T00:17:38;97141.22;;;4.77;52.71
550;BME280;20066;48.764;9.176;2023-03-11T00:20:15;97145.75;;;4.73;53.09
550;BME280;20066;48.764;9.176;2023-03-11T00:22:43;97143.19;;;4.94;52.05
550;BME280;20066;48.764;9.176;2023-03-11T00:25:12;97153.13;;;5.00;52.24
550;BME280;20066;48.764;9.176;2023-03-11T00:27:40;97160.88;;;4.61;53.67
550;BME280;20066;48.764;9.176;2023-03-11T00:30:24;97172.09;;;4.85;52.85
550;BME280;20066;48.764;9.176;2023-03-11T00:32:56;97169.31;;;4.71;52.82
550;BME280;20066;48.764;9.176;2023-03-11T00:35:26;97146.91;;;4.31;55.34
550;BME280;20066;48.764;9.176;2023-03-11T00:37:56;97155.56;;;5.27;53.27
550;BME280;20066;48.764;9.176;2023-03-11T00:40:25;97156.31;;;5.24;52.15
550;BME280;20066;48.764;9.176;2023-03-11T00:42:54;97166.38;;;4.39;55.05
550;BME280;20066;48.764;9.176;2023-03-11T00:45:23;97172.66;;;5.15;52.69
550;BME280;20066;48.764;9.176;2023-03-11T00:47:52;97170.69;;;5.08;54.21
550;BME280;20066;48.764;9.176;2023-03-11T00:50:23;97175.47;;;5.43;52.48
550;BME280;20066;48.764;9.176;2023-03-11T00:52:51;97167.53;;;4.89;53.75
550;BME280;20066;48.764;9.176;2023-03-11T00:55:21;97186.84;;;5.37;53.40
550;BME280;20066;48.764;9.176;2023-03-11T00:57:51;97185.78;;;5.56;53.25
550;BME280;20066;48.764;9.176;2023-03-11T01:00:22;97190.50;;;5.11;53.19
550;BME280;20066;48.764;9.176;2023-03-11T01:02:52;97196.63;;;4.60;55.12
550;BME280;20066;48.764;9.176;2023-03-11T01:05:22;97185.63;;;4.65;54.62
550;BME280;20066;48.764;9.176;2023-03-11T01:07:50;97190.66;;;4.78;55.25
550;BME280;20066;48.764;9.176;2023-03-11T01:10:18;97196.59;;;5.12;54.28
550;BME280;20066;48.764;9.176;2023-03-11T01:12:46;97187.28;;;5.46;53.49
550;BME280;20066;48.764;9.176;2023-03-11T01:15:18;97185.63;;;5.20;54.02
550;BME280;20066;48.764;9.176;2023-03-11T01:17:48;97182.63;;;5.29;54.43
550;BME280;20066;48.764;9.176;2023-03-11T01:20:16;97180.09;;;4.88;55.32
550;BME280;20066;48.764;9.176;2023-03-11T01:22:45;97191.69;;;5.14;54.96
550;BME280;20066;48.764;9.176;2023-03-11T01:25:13;97171.19;;;4.66;55.04
550;BME280;20066;48.764;9.176;2023-03-11T01:27:42;97186.44;;;3.92;55.39
550;BME280;20066;48.764;9.176;2023-03-11T01:30:13;97181.91;;;4.33;54.89
550;BME280;20066;48.764;9.176;2023-03-11T01:32:41;97198.22;;;4.68;54.17
550;BME280;20066;48.764;9.176;2023-03-11T01:35:13;97191.22;;;4.50;54.82
550;BME280;20066;48.764;9.176;2023-03-11T01:37:41;97176.25;;;4.86;55.50
550;BME280;20066;48.764;9.176;2023-03-11T01:40:13;97187.78;;;4.49;55.04
550;BME280;20066;48.764;9.176;2023-03-11T01:42:42;97202.47;;;4.36;54.49
550;BME280;20066;48.764;9.176;2023-03-11T01:45:37;97217.25;;;4.34;55.10
550;BME280;20066;48.764;9.176;2023-03-11T01:48:07;97195.16;;;4.70;53.44
550;BME280;20066;48.764;9.176;2023-03-11T01:50:39;97201.56;;;4.58;54.11
550;BME280;20066;48.764;9.176;2023-03-11T01:53:08;97194.59;;;4.06;55.34
550;BME280;20066;48.764;9.176;2023-03-11T01:55:37;97193.75;;;3.99;54.96
550;BME280;20066;48.764;9.176;2023-03-11T01:58:07;97200.31;;;4.49;54.10
550;BME280;20066;48.764;9.176;2023-03-11T02:00:37;97204.31;;;4.69;54.00
550;BME280;20066;48.764;9.176;2023-03-11T02:03:08;97189.97;;;4.40;53.33
550;BME280;20066;48.764;9.176;2023-03-11T02:05:39;97179.03;;;5.00;53.16
550;BME280;20066;48.764;9.176;2023-03-11T02:08:08;97193.00;;;4.02;54.58
550;BME280;20066;48.764;9.176;2023-03-11T02:10:36;97199.13;;;4.43;54.12
550;BME280;20066;48.764;9.176;2023-03-11T02:13:05;97191.09;;;4.39;54.13
550;BME280;20066;48.764;9.176;2023-03-11T02:15:33;97206.31;;;4.39;53.73
550;BME280;20066;48.764;9.176;2023-03-11T02:18:05;97217.25;;;4.34;53.46
550;BME280;20066;48.764;9.176;2023-03-11T02:20:41;97203.16;;;4.66;52.77
550;BME280;20066;48.764;9.176;2023-03-11T02:23:12;97227.50;;;4.68;52.22
550;BME280;20066;48.764;9.176;2023-03-11T02:25:43;97211.75;;;4.16;53.51
550;BME280;20066;48.764;9.176;2023-03-11T02:28:15;97230.78;;;4.51;51.31
550;BME280;20066;48.764;9.176;2023-03-11T02:30:46;97219.38;;;4.17;51.98
550;BME280;20066;48.764;9.176;2023-03-11T02:33:14;97235.97;;;4.04;52.66
550;BME280;20066;48.764;9.176;2023-03-11T02:35:43;97238.84;;;4.25;51.51
550;BME280;20066;48.764;9.176;2023-03-11T02:38:10;97247.16;;;4.20;52.23
550;BME280;20066;48.764;9.176;2023-03-11T02:40:49;97237.56;;;4.12;52.65
550;BME280;20066;48.764;9.176;2023-03-11T02:43:23;97228.97;;;4.25;52.29
550;BME280;20066;48.764;9.176;2023-03-11T02:45:52;97245.88;;;4.40;51.71
550;BME280;20066;48.764;9.176;2023-03-11T02:48:22;97234.88;;;3.75;52.90
550;BME280;20066;48.764;9.176;2023-03-11T02:50:50;97233.47;;;3.84;52.42
550;BME280;20066;48.764;9.176;2023-03-11T02:53:18;97254.31;;;4.12;51.47
550;BME280;20066;48.764;9.176;2023-03-11T02:55:46;97259.75;;;3.89;53.12
550;BME280;20066;48.764;9.176;2023-03-11T02:58:14;97236.78;;;3.74;51.86
550;BME280;20066;48.764;9.176;2023-03-11T03:00:43;97224.06;;;3.94;52.41
550;BME280;20066;48.764;9.176;2023-03-11T03:03:11;97247.53;;;4.18;51.87
550;BME280;20066;48.764;9.176;2023-03-11T03:05:39;97234.72;;;3.61;52.27
550;BME280;20066;48.764;9.176;2023-03-11T03:08:07;97255.09;;;4.16;51.54
550;BME280;20066;48.764;9.176;2023-03-11T03:10:35;97239.97;;;4.24;51.55
550;BME280;20066;48.764;9.176;2023-03-11T03:13:03;97242.44;;;4.40;51.02
550;BME280;20066;48.764;9.176;2023-03-11T03:15:30;97236.44;;;4.13;51.71
550;BME280;20066;48.764;9.176;2023-03-11T03:17:59;97259.41;;;4.28;51.48
550;BME280;20066;48.764;9.176;2023-03-11T03:20:28;97259.97;;;3.77;52.15
550;BME280;20066;48.764;9.176;2023-03-11T03:22:55;97254.72;;;3.84;51.11
550;BME280;20066;48.764;9.176;2023-03-11T03:25:23;97261.84;;;3.47;51.86
550;BME280;20066;48.764;9.176;2023-03-11T03:27:51;97243.97;;;3.74;51.37
550;BME280;20066;48.764;9.176;2023-03-11T03:30:19;97247.88;;;4.17;51.40
550;BME280;20066;48.764;9.176;2023-03-11T03:32:47;97251.66;;;4.16;50.55
550;BME280;20066;48.764;9.176;2023-03-11T03:35:16;97251.38;;;4.21;50.82
550;BME280;20066;48.764;9.176;2023-03-11T03:37:44;97258.81;;;4.42;50.24
550;BME280;20066;48.764;9.176;2023-03-11T03:40:12;97254.88;;;4.28;49.15
550;BME280;20066;48.764;9.176;2023-03-11T03:42:40;97261.41;;;3.71;51.16
550;BME280;20066;48.764;9.176;2023-03-11T03:45:09;97270.19;;;4.05;51.15
550;BME280;20066;48.764;9.176;2023-03-11T03:47:37;97273.34;;;3.84;51.56
550;BME280;20066;48.764;9.176;2023-03-11T03:50:08;97278.44;;;3.37;51.32
550;BME280;20066;48.764;9.176;2023-03-11T03:52:39;97283.63;;;3.56;52.49
550;BME280;20066;48.764;9.176;2023-03-11T03:55:07;97282.72;;;3.45;52.31
550;BME280;20066;48.764;9.176;2023-03-11T03:57:35;97283.84;;;4.04;52.28
550;BME280;20066;48.764;9.176;2023-03-11T04:00:05;97295.47;;;3.92;50.79
550;BME280;20066;48.764;9.176;2023-03-11T04:02:35;97299.28;;;3.91;51.89
550;BME280;20066;48.764;9.176;2023-03-11T04:05:03;97284.25;;;4.06;51.79
550;BME280;20066;48.764;9.176;2023-03-11T04:07:32;97290.47;;;4.17;51.33
550;BME280;20066;48.764;9.176;2023-03-11T04:10:02;97299.63;;;3.89;51.81
550;BME280;20066;48.764;9.176;2023-03-11T04:12:30;97303.91;;;4.27;51.15
550;BME280;20066;48.764;9.176;2023-03-11T04:14:58;97307.50;;;3.52;53.32
550;BME280;20066;48.764;9.176;2023-03-11T04:17:26;97304.44;;;3.50;53.04
550;BME280;20066;48.764;9.176;2023-03-11T04:19:54;97314.47;;;3.90;52.07
550;BME280;20066;48.764;9.176;2023-03-11T04:22:22;97311.91;;;3.98;52.44
550;BME280;20066;48.764;9.176;2023-03-11T04:24:50;97315.44;;;3.79;51.87
550;BME280;20066;48.764;9.176;2023-03-11T04:27:19;97308.66;;;3.81;52.66
550;BME280;20066;48.764;9.176;2023-03-11T04:29:47;97300.09;;;3.95;52.66
550;BME280;20066;48.764;9.176;2023-03-11T04:32:15;97299.56;;;3.82;53.06
550;BME280;20066;48.764;9.176;2023-03-11T04:34:42;97306.69;;;4.08;51.91
550;BME280;20066;48.764;9.176;2023-03-11T04:37:10;97304.72;;;3.72;52.70
550;BME280;20066;48.764;9.176;2023-03-11T04:39:38;97301.06;;;4.13;51.81
550;BME280;20066;48.764;9.176;2023-03-11T04:42:06;97303.25;;;3.22;53.81
550;BME280;20066;48.764;9.176;2023-03-11T04:44:35;97305.75;;;3.64;53.36
550;BME280;20066;48.764;9.176;2023-03-11T04:47:03;97300.41;;;3.60;53.66
550;BME280;20066;48.764;9.176;2023-03-11T04:49:31;97295.34;;;3.81;52.30
550;BME280;20066;48.764;9.176;2023-03-11T04:52:00;97299.63;;;3.33;53.31
550;BME280;20066;48.764;9.176;2023-03-11T04:54:27;97305.59;;;3.79;53.31
550;BME280;20066;48.764;9.176;2023-03-11T04:56:55;97305.41;;;3.65;53.88
550;BME280;20066;48.764;9.176;2023-03-11T04:59:24;97314.84;;;3.63;53.71
550;BME280;20066;48.764;9.176;2023-03-11T05:01:53;97310.00;;;3.68;52.98
550;BME280;20066;48.764;9.176;2023-03-11T05:04:21;97312.06;;;3.52;54.31
550;BME280;20066;48.764;9.176;2023-03-11T05:06:49;97317.75;;;3.54;53.51
550;BME280;20066;48.764;9.176;2023-03-11T05:09:17;97319.91;;;3.71;53.72
550;BME280;20066;48.764;9.176;2023-03-11T05:11:45;97317.31;;;3.75;53.21
550;BME280;20066;48.764;9.176;2023-03-11T05:14:13;97315.44;;;3.79;53.25
550;BME280;20066;48.764;9.176;2023-03-11T05:16:41;97321.91;;;3.51;54.13
550;BME280;20066;48.764;9.176;2023-03-11T05:19:10;97323.34;;;3.72;53.27
550;BME280;20066;48.764;9.176;2023-03-11T05:21:52;97321.84;;;3.74;52.85
550;BME280;20066;48.764;9.176;2023-03-11T05:24:20;97339.22;;;3.42;54.38
550;BME280;20066;48.764;9.176;2023-03-11T05:26:48;97332.03;;;3.42;55.71
550;BME280;20066;48.764;9.176;2023-03-11T05:29:17;97326.25;;;3.37;54.47
550;BME280;20066;48.764;9.176;2023-03-11T05:31:45;97337.66;;;3.64;54.25
550;BME280;20066;48.764;9.176;2023-03-11T05:34:15;97340.47;;;3.48;53.68
550;BME280;20066;48.764;9.176;2023-03-11T05:36:43;97345.25;;;2.70;55.03
550;BME280;20066;48.764;9.176;2023-03-11T05:39:11;97336.91;;;3.14;54.55
550;BME280;20066;48.764;9.176;2023-03-11T05:41:39;97347.84;;;3.58;54.66
550;BME280;20066;48.764;9.176;2023-03-11T05:44:07;97360.72;;;3.82;53.30
550;BME280;20066;48.764;9.176;2023-03-11T05:46:35;97339.44;;;2.84;54.71
550;BME280;20066;48.764;9.176;2023-03-11T05:49:03;97332.53;;;2.80;55.54
550;BME280;20066;48.764;9.176;2023-03-11T05:51:32;97327.13;;;2.53;55.92
550;BME280;20066;48.764;9.176;2023-03-11T05:54:00;97323.72;;;2.33;57.14
550;BME280;20066;48.764;9.176;2023-03-11T05:56:28;97332.84;;;2.97;55.60
550;BME280;20066;48.764;9.176;2023-03-11T05:58:56;97331.94;;;3.35;53.89
550;BME280;20066;48.764;9.176;2023-03-11T06:01:24;97345.41;;;3.49;53.92
550;BME280;20066;48.764;9.176;2023-03-11T06:03:52;97342.16;;;3.10;54.55
550;BME280;20066;48.764;9.176;2023-03-11T06:06:20;97349.22;;;3.26;55.08
550;BME280;20066;48.764;9.176;2023-03-11T06:08:50;97348.78;;;3.46;54.18
550;BME280;20066;48.764;9.176;2023-03-11T06:11:18;97355.63;;;2.98;55.67
550;BME280;20066;48.764;9.176;2023-03-11T06:13:46;97367.56;;;3.57;55.01
550;BME280;20066;48.764;9.176;2023-03-11T06:16:14;97358.44;;;2.86;55.40
550;BME280;20066;48.764;9.176;2023-03-11T06:18:42;97360.31;;;3.08;56.28
550;BME280;20066;48.764;9.176;2023-03-11T06:21:14;97351.00;;;2.95;55.09
550;BME280;20066;48.764;9.176;2023-03-11T06:23:43;97358.78;;;3.07;55.23
550;BME280;20066;48.764;9.176;2023-03-11T06:26:14;97358.03;;;3.07;55.61
550;BME280;20066;48.764;9.176;2023-03-11T06:28:43;97353.84;;;3.06;55.06
550;BME280;20066;48.764;9.176;2023-03-11T06:31:13;97360.38;;;3.35;54.32
550;BME280;20066;48.764;9.176;2023-03-11T06:33:42;97359.38;;;2.55;55.90
550;BME280;20066;48.764;9.176;2023-03-11T06:36:12;97367.69;;;2.54;56.88
550;BME280;20066;48.764;9.176;2023-03-11T06:38:41;97369.41;;;2.85;56.18
550;BME280;20066;48.764;9.176;2023-03-11T06:41:09;97382.97;;;3.22;54.53
550;BME280;20066;48.764;9.176;2023-03-11T06:43:39;97388.28;;;3.22;55.22
550;BME280;20066;48.764;9.176;2023-03-11T06:46:07;97393.25;;;3.49;54.66
550;BME280;20066;48.764;9.176;2023-03-11T06:48:36;97390.56;;;3.23;54.49
550;BME280;20066;48.764;9.176;2023-03-11T06:51:04;97409.59;;;2.83;55.30
550;BME280;20066;48.764;9.176;2023-03-11T06:53:32;97408.09;;;3.05;54.92
550;BME280;20066;48.764;9.176;2023-03-11T06:56:02;97420.69;;;3.80;52.54
550;BME280;20066;48.764;9.176;2023-03-11T06:58:31;97414.00;;;3.40;54.07
550;BME280;20066;48.764;9.176;2023-03-11T07:01:01;97419.16;;;3.30;54.32
550;BME280;20066;48.764;9.176;2023-03-11T07:03:30;97424.19;;;3.84;53.44
550;BME280;20066;48.764;9.176;2023-03-11T07:05:59;97427.94;;;3.57;53.98
550;BME280;20066;48.764;9.176;2023-03-11T07:08:27;97426.78;;;3.80;52.55
550;BME280;20066;48.764;9.176;2023-03-11T07:11:01;97424.31;;;3.95;53.05
550;BME280;20066;48.764;9.176;2023-03-11T07:13:30;97418.59;;;3.92;51.84
550;BME280;20066;48.764;9.176;2023-03-11T07:16:04;97425.75;;;3.88;52.72
550;BME280;20066;48.764;9.176;2023-03-11T07:18:34;97434.69;;;3.08;53.60
550;BME280;20066;48.764;9.176;2023-03-11T07:21:04;97441.66;;;4.11;51.89
550;BME280;20066;48.764;9.176;2023-03-11T07:23:33;97432.84;;;4.34;51.49
550;BME280;20066;48.764;9.176;2023-03-11T07:26:01;97438.38;;;4.48;52.03
550;BME280;20066;48.764;9.176;2023-03-11T07:28:30;97440.66;;;4.46;50.52
550;BME280;20066;48.764;9.176;2023-03-11T07:30:58;97434.72;;;4.29;50.86
550;BME280;20066;48.764;9.176;2023-03-11T07:33:28;97436.75;;;3.87;50.87
550;BME280;20066;48.764;9.176;2023-03-11T07:35:59;97447.06;;;3.92;51.18
550;BME280;20066;48.764;9.176;2023-03-11T07:38:31;97453.47;;;3.87;51.25
550;BME280;20066;48.764;9.176;2023-03-11T07:41:01;97448.72;;;3.51;51.81
550;BME280;20066;48.764;9.176;2023-03-11T07:43:34;97455.06;;;3.92;52.06
550;BME280;20066;48.764;9.176;2023-03-11T07:46:04;97462.53;;;4.36;50.99
550;BME280;20066;48.764;9.176;2023-03-11T07:48:36;97459.47;;;4.34;49.96
550;BME280;20066;48.764;9.176;2023-03-11T07:51:07;97450.16;;;4.77;49.38
550;BME280;20066;48.764;9.176;2023-03-11T07:53:36;97453.63;;;4.81;49.35
550;BME280;20066;48.764;9.176;2023-03-11T07:56:09;97464.22;;;4.77;49.66
550;BME280;20066;48.764;9.176;2023-03-11T07:58:39;97470.47;;;4.58;50.25
550;BME280;20066;48.764;9.176;2023-03-11T08:01:10;97466.59;;;4.86;49.40
550;BME280;20066;48.764;9.176;2023-03-11T08:03:40;97477.06;;;4.15;50.22
550;BME280;20066;48.764;9.176;2023-03-11T08:06:12;97475.63;;;4.44;50.73
550;BME280;20066;48.764;9.176;2023-03-11T08:08:41;97473.09;;;4.85;49.19
550;BME280;20066;48.764;9.176;2023-03-11T08:11:11;97467.03;;;4.88;48.43
550;BME280;20066;48.764;9.176;2023-03-11T08:13:42;97464.66;;;5.16;47.43
550;BME280;20066;48.764;9.176;2023-03-11T08:16:13;97460.28;;;5.34;47.43
550;BME280;20066;48.764;9.176;2023-03-11T08:18:43;97475.06;;;6.20;46.39
550;BME280;20066;48.764;9.176;2023-03-11T08:21:13;97476.78;;;7.71;43.33
550;BME280;20066;48.764;9.176;2023-03-11T08:23:42;97486.16;;;11.53;36.16
550;BME280;20066;48.764;9.176;2023-03-11T08:26:12;97483.63;;;13.22;32.14
550;BME280;20066;48.764;9.176;2023-03-11T08:28:41;97491.03;;;16.36;27.57
550;BME280;20066;48.764;9.176;2023-03-11T08:31:13;97487.28;;;16.21;26.33
550;BME280;20066;48.764;9.176;2023-03-11T08:33:43;97494.13;;;17.03;24.96
550;BME280;20066;48.764;9.176;2023-03-11T08:36:12;97493.25;;;16.50;26.80
550;BME280;20066;48.764;9.176;2023-03-11T08:38:39;97498.75;;;16.37;25.68
550;BME280;20066;48.764;9.176;2023-03-11T08:41:07;97504.53;;;17.05;24.82
550;BME280;20066;48.764;9.176;2023-03-11T08:43:35;97499.84;;;14.39;28.03
550;BME280;20066;48.764;9.176;2023-03-11T08:46:04;97509.16;;;12.78;30.91
550;BME280;20066;48.764;9.176;2023-03-11T08:48:34;97508.97;;;15.32;27.04
550;BME280;20066;48.764;9.176;2023-03-11T08:51:09;97517.06;;;13.64;28.61
550;BME280;20066;48.764;9.176;2023-03-11T08:53:37;97509.81;;;12.62;30.35
550;BME280;20066;48.764;9.176;2023-03-11T08:56:06;97521.09;;;9.62;34.42
550;BME280;20066;48.764;9.176;2023-03-11T08:58:34;97517.34;;;11.81;33.89
550;BME280;20066;48.764;9.176;2023-03-11T09:01:03;97516.25;;;14.00;30.04
550;BME280;20066;48.764;9.176;2023-03-11T09:03:31;97520.69;;;16.65;27.25
550;BME280;20066;48.764;9.176;2023-03-11T09:06:02;97522.03;;;15.75;27.10
550;BME280;20066;48.764;9.176;2023-03-11T09:08:33;97510.28;;;12.81;30.42
550;BME280;20066;48.764;9.176;2023-03-11T09:11:04;97514.34;;;9.37;36.57
550;BME280;20066;48.764;9.176;2023-03-11T09:13:32;97523.03;;;8.78;37.21
550;BME280;20066;48.764;9.176;2023-03-11T09:16:01;97518.09;;;7.81;38.34
550;BME280;20066;48.764;9.176;2023-03-11T09:18:31;97522.44;;;6.95;40.22
550;BME280;20066;48.764;9.176;2023-03-11T09:20:59;97522.97;;;7.29;40.56
550;BME280;20066;48.764;9.176;2023-03-11T09:23:27;97529.28;;;9.34;37.46
550;BME280;20066;48.764;9.176;2023-03-11T09:25:59;97525.47;;;10.49;34.57
550;BME280;20066;48.764;9.176;2023-03-11T09:28:27;97540.63;;;8.58;37.41
550;BME280;20066;48.764;9.176;2023-03-11T09:30:57;97533.03;;;8.18;38.76
550;BME280;20066;48.764;9.176;2023-03-11T09:33:25;97532.91;;;10.31;34.32
550;BME280;20066;48.764;9.176;2023-03-11T09:35:53;97535.97;;;12.89;31.67
550;BME280;20066;48.764;9.176;2023-03-11T09:38:21;97538.75;;;13.61;31.38
550;BME280;20066;48.764;9.176;2023-03-11T09:40:57;97537.47;;;13.29;28.82
550;BME280;20066;48.764;9.176;2023-03-11T09:43:36;97528.97;;;12.48;29.62
550;BME280;20066;48.764;9.176;2023-03-11T09:46:21;97533.47;;;10.90;31.61
550;BME280;20066;48.764;9.176;2023-03-11T09:48:59;97534.50;;;10.25;33.44
550;BME280;20066;48.764;9.176;2023-03-11T09:51:35;97540.88;;;12.27;31.35
550;BME280;20066;48.764;9.176;2023-03-11T09:54:09;97532.31;;;14.23;28.40
550;BME280;20066;48.764;9.176;2023-03-11T09:56:38;97536.81;;;15.20;27.69
550;BME280;20066;48.764;9.176;2023-03-11T09:59:16;97539.13;;;17.04;24.66
550;BME280;20066;48.764;9.176;2023-03-11T10:01:48;97537.66;;;17.34;24.38
550;BME280;20066;48.764;9.176;2023-03-11T10:04:20;97543.66;;;17.82;22.02
550;BME280;20066;48.764;9.176;2023-03-11T10:06:53;97544.97;;;19.03;21.60
550;BME280;20066;48.764;9.176;2023-03-11T10:09:34;97538.72;;;13.80;25.27
550;BME280;20066;48.764;9.176;2023-03-11T10:12:21;97532.97;;;14.59;24.92
550;BME280;20066;48.764;9.176;2023-03-11T10:15:11;97536.72;;;18.21;21.43
550;BME280;20066;48.764;9.176;2023-03-11T10:18:02;97528.47;;;15.39;23.83
550;BME280;20066;48.764;9.176;2023-03-11T10:20:37;97528.09;;;13.18;27.41
550;BME280;20066;48.764;9.176;2023-03-11T10:23:16;97536.19;;;12.98;28.48
550;BME280;20066;48.764;9.176;2023-03-11T10:25:53;97534.41;;;12.21;30.31
550;BME280;20066;48.764;9.176;2023-03-11T10:28:26;97529.84;;;10.70;30.90
550;BME280;20066;48.764;9.176;2023-03-11T10:31:02;97532.50;;;9.08;33.80
550;BME280;20066;48.764;9.176;2023-03-11T10:33:37;97538.00;;;8.47;35.00
550;BME280;20066;48.764;9.176;2023-03-11T10:36:12;97543.34;;;8.47;35.01
550;BME280;20066;48.764;9.176;2023-03-11T10:38:43;97533.78;;;8.07;35.61
550;BME280;20066;48.764;9.176;2023-03-11T10:41:17;97535.69;;;8.46;35.22
550;BME280;20066;48.764;9.176;2023-03-11T10:43:51;97534.00;;;9.12;34.33
550;BME280;20066;48.764;9.176;2023-03-11T10:46:25;97525.47;;;10.45;32.77
550;BME280;20066;48.764;9.176;2023-03-11T10:48:53;97528.09;;;13.18;28.82
550;BME280;20066;48.764;9.176;2023-03-11T10:51:23;97525.88;;;13.84;25.59
550;BME280;20066;48.764;9.176;2023-03-11T10:53:53;97525.16;;;15.73;24.09
550;BME280;20066;48.764;9.176;2023-03-11T10:56:28;97536.84;;;16.08;23.69
550;BME280;20066;48.764;9.176;2023-03-11T10:58:57;97529.63;;;18.41;21.96
550;BME280;20066;48.764;9.176;2023-03-11T11:01:27;97537.25;;;17.97;22.90
550;BME280;20066;48.764;9.176;2023-03-11T11:03:57;97530.56;;;16.93;23.20
550;BME280;20066;48.764;9.176;2023-03-11T11:06:32;97539.97;;;15.02;25.58
550;BME280;20066;48.764;9.176;2023-03-11T11:09:13;97542.88;;;14.01;27.07
550;BME280;20066;48.764;9.176;2023-03-11T11:11:42;97536.41;;;12.41;27.52
550;BME280;20066;48.764;9.176;2023-03-11T11:14:40;97540.56;;;13.11;25.75
550;BME280;20066;48.764;9.176;2023-03-11T11:17:17;97544.16;;;13.05;27.14
550;BME280;20066;48.764;9.176;2023-03-11T11:19:47;97531.59;;;14.96;24.72
550;BME280;20066;48.764;9.176;2023-03-11T11:22:17;97535.63;;;8.88;31.94
550;BME280;20066;48.764;9.176;2023-03-11T11:24:47;97529.47;;;10.71;30.28
550;BME280;20066;48.764;9.176;2023-03-11T11:27:18;97537.19;;;11.03;30.68
550;BME280;20066;48.764;9.176;2023-03-11T11:29:48;97537.69;;;11.82;29.40
550;BME280;20066;48.764;9.176;2023-03-11T11:32:30;97539.72;;;13.86;26.05
550;BME280;20066;48.764;9.176;2023-03-11T11:34:59;97535.38;;;15.82;25.09
550;BME280;20066;48.764;9.176;2023-03-11T11:37:29;97539.50;;;15.99;23.74
550;BME280;20066;48.764;9.176;2023-03-11T11:40:00;97542.06;;;16.15;22.75
550;BME280;20066;48.764;9.176;2023-03-11T11:42:37;97527.44;;;12.47;27.76
550;BME280;20066;48.764;9.176;2023-03-11T11:45:13;97522.72;;;11.81;28.46
550;BME280;20066;48.764;9.176;2023-03-11T11:47:48;97526.28;;;12.68;28.01
550;BME280;20066;48.764;9.176;2023-03-11T11:50:28;97523.25;;;13.45;26.72
550;BME280;20066;48.764;9.176;2023-03-11T11:53:04;97520.81;;;13.14;26.60
550;BME280;20066;48.764;9.176;2023-03-11T11:55:36;97515.88;;;12.00;28.43
550;BME280;20066;48.764;9.176;2023-03-11T11:58:08;97509.34;;;10.83;30.01
550;BME280;20066;48.764;9.176;2023-03-11T12:00:45;97513.41;;;10.61;30.80
550;BME280;20066;48.764;9.176;2023-03-11T12:03:37;97511.63;;;10.84;30.85
550;BME280;20066;48.764;9.176;2023-03-11T12:06:14;97508.84;;;9.61;32.06
550;BME280;20066;48.764;9.176;2023-03-11T12:08:53;97501.66;;;8.22;33.82
550;BME280;20066;48.764;9.176;2023-03-11T12:11:37;97496.22;;;7.33;36.18
550;BME280;20066;48.764;9.176;2023-03-11T12:14:12;97500.25;;;6.84;37.40
550;BME280;20066;48.764;9.176;2023-03-11T12:16:47;97493.97;;;8.38;35.64
550;BME280;20066;48.764;9.176;2023-03-11T12:19:28;97486.56;;;8.95;33.36
550;BME280;20066;48.764;9.176;2023-03-11T12:25:26;97484.44;;;9.35;31.86
550;BME280;20066;48.764;9.176;2023-03-11T12:27:59;97493.38;;;9.80;31.44
550;BME280;20066;48.764;9.176;2023-03-11T12:30:32;97476.84;;;10.33;31.16
550;BME280;20066;48.764;9.176;2023-03-11T12:33:04;97482.88;;;7.44;34.99
550;BME280;20066;48.764;9.176;2023-03-11T12:35:35;97474.63;;;6.07;38.40
550;BME280;20066;48.764;9.176;2023-03-11T12:38:15;97476.78;;;7.64;35.75
550;BME280;20066;48.764;9.176;2023-03-11T12:44:02;97478.22;;;8.79;33.94
550;BME280;20066;48.764;9.176;2023-03-11T12:49:45;97478.47;;;9.06;33.82
550;BME280;20066;48.764;9.176;2023-03-11T12:52:23;97488.19;;;9.51;32.33
550;BME280;20066;48.764;9.176;2023-03-11T12:58:31;97482.41;;;10.04;31.61
550;BME280;20066;48.764;9.176;2023-03-11T13:01:09;97483.03;;;10.26;31.01
550;BME280;20066;48.764;9.176;2023-03-11T13:03:47;97477.59;;;9.85;31.63
550;BME280;20066;48.764;9.176;2023-03-11T13:06:41;97466.69;;;10.06;31.76
550;BME280;20066;48.764;9.176;2023-03-11T13:09:16;97472.59;;;11.03;29.74
550;BME280;20066;48.764;9.176;2023-03-11T13:11:45;97463.47;;;9.78;30.84
550;BME280;20066;48.764;9.176;2023-03-11T13:14:25;97468.69;;;10.40;30.53
550;BME280;20066;48.764;9.176;2023-03-11T13:16:54;97468.59;;;10.06;29.77
550;BME280;20066;48.764;9.176;2023-03-11T13:19:37;97474.56;;;9.21;32.03
550;BME280;20066;48.764;9.176;2023-03-11T13:25:36;97458.59;;;10.10;30.44
550;BME280;20066;48.764;9.176;2023-03-11T13:28:25;97473.34;;;8.13;33.87
550;BME280;20066;48.764;9.176;2023-03-11T13:31:02;97477.53;;;9.37;31.75
550;BME280;20066;48.764;9.176;2023-03-11T13:33:41;97482.09;;;9.44;32.21
550;BME280;20066;48.764;9.176;2023-03-11T13:36:24;97483.06;;;10.19;30.49
550;BME280;20066;48.764;9.176;2023-03-11T13:39:27;97480.63;;;11.07;29.84
550;BME280;20066;48.764;9.176;2023-03-11T13:42:01;97480.91;;;10.48;31.04
550;BME280;20066;48.764;9.176;2023-03-11T13:44:34;97476.06;;;11.04;29.86
550;BME280;20066;48.764;9.176;2023-03-11T13:47:07;97486.09;;;15.71;23.87
550;BME280;20066;48.764;9.176;2023-03-11T13:49:40;97487.03;;;14.85;24.08
550;BME280;20066;48.764;9.176;2023-03-11T13:52:13;97484.47;;;12.99;26.18
550;BME280;20066;48.764;9.176;2023-03-11T13:54:45;97483.59;;;11.73;28.34
550;BME280;20066;48.764;9.176;2023-03-11T13:57:22;97484.94;;;14.76;25.38
550;BME280;20066;48.764;9.176;2023-03-11T13:59:52;97497.09;;;18.29;21.00
550;BME280;20066;48.764;9.176;2023-03-11T14:02:23;97491.34;;;18.36;20.38
550;BME280;20066;48.764;9.176;2023-03-11T14:04:53;97489.00;;;15.13;23.78
550;BME280;20066;48.764;9.176;2023-03-11T14:07:26;97479.88;;;13.16;26.02